sensor_id;sensor_type;location;lat;lon;timestamp;pressure;altitude;pressure_sealevel;temperature;humidity
41800;BME280;27468;47.460;19.034;2022-10-23T00:02:19;100794.47;;;9.99;100.00
41800;BME280;27468;47.460;19.034;2022-10-23T00:04:45;100823.31;;;10.10;100.00
41800;BME280;27468;47.460;19.034;2022-10-23T00:07:10;100784.09;;;9.84;100.00
41800;BME280;27468;47.460;19.034;2022-10-23T00:09:36;100784.91;;;9.89;100.00
41800;BME280;27468;47.460;19.034;2022-10-23T00:12:01;100787.59;;;9.84;100.00
41800;BME280;27468;47.460;19.034;2022-10-23T00:14:27;100787.72;;;9.75;100.00
41800;BME280;27468;47.460;19.034;2022-10-23T00:16:52;100790.34;;;9.74;100.00
41800;BME280;27468;47.460;19.034;2022-10-23T00:19:18;100801.81;;;9.70;100.00
41800;BME280;27468;47.460;19.034;2022-10-23T00:21:43;100824.59;;;9.72;100.00
41800;BME280;27468;47.460;19.034;2022-10-23T00:24:09;100811.50;;;9.65;100.00
41800;BME280;27468;47.460;19.034;2022-10-23T00:26:34;100844.66;;;9.82;100.00
41800;BME280;27468;47.460;19.034;2022-10-23T00:29:02;100887.53;;;10.00;100.00
41800;BME280;27468;47.460;19.034;2022-10-23T00:31:27;100769.66;;;9.33;100.00
41800;BME280;27468;47.460;19.034;2022-10-23T00:33:53;100816.81;;;9.58;100.00
41800;BME280;27468;47.460;19.034;2022-10-23T00:36:20;100884.03;;;9.96;100.00
41800;BME280;27468;47.460;19.034;2022-10-23T00:38:46;100865.78;;;9.81;100.00
41800;BME280;27468;47.460;19.034;2022-10-23T00:41:18;100887.59;;;9.90;100.00
41800;BME280;27468;47.460;19.034;2022-10-23T00:44:07;100896.41;;;9.88;100.00
41800;BME280;27468;47.460;19.034;2022-10-23T00:46:33;100892.09;;;9.81;100.00
41800;BME280;27468;47.460;19.034;2022-10-23T00:48:59;100845.84;;;9.51;100.00
41800;BME280;27468;47.460;19.034;2022-10-23T00:51:28;100876.50;;;9.58;100.00
41800;BME280;27468;47.460;19.034;2022-10-23T00:53:57;100911.50;;;9.72;100.00
41800;BME280;27468;47.460;19.034;2022-10-23T00:56:24;100845.06;;;9.38;100.00
41800;BME280;27468;47.460;19.034;2022-10-23T00:58:50;100888.78;;;9.56;100.00
41800;BME280;27468;47.460;19.034;2022-10-23T01:01:17;100865.19;;;9.45;100.00
41800;BME280;27468;47.460;19.034;2022-10-23T01:03:43;100860.88;;;9.35;100.00
41800;BME280;27468;47.460;19.034;2022-10-23T01:06:20;100858.28;;;9.29;100.00
41800;BME280;27468;47.460;19.034;2022-10-23T01:09:12;100862.66;;;9.30;100.00
41800;BME280;27468;47.460;19.034;2022-10-23T01:11:46;100914.31;;;9.45;100.00
41800;BME280;27468;47.460;19.034;2022-10-23T01:28:25;100937.84;;;9.66;100.00
41800;BME280;27468;47.460;19.034;2022-10-23T01:30:53;100916.84;;;9.62;100.00
41800;BME280;27468;47.460;19.034;2022-10-23T01:33:26;100895.81;;;9.54;100.00
41800;BME280;27468;47.460;19.034;2022-10-23T01:36:05;100901.94;;;9.57;100.00
41800;BME280;27468;47.460;19.034;2022-10-23T01:41:01;100890.53;;;9.57;100.00
41800;BME280;27468;47.460;19.034;2022-10-23T01:43:40;100899.19;;;9.74;100.00
41800;BME280;27468;47.460;19.034;2022-10-23T01:46:11;100872.06;;;9.62;100.00
41800;BME280;27468;47.460;19.034;2022-10-23T01:48:39;100852.84;;;9.52;100.00
41800;BME280;27468;47.460;19.034;2022-10-23T01:51:08;100907.03;;;9.82;100.00
41800;BME280;27468;47.460;19.034;2022-10-23T01:53:37;100926.19;;;9.96;100.00
41800;BME280;27468;47.460;19.034;2022-10-23T01:56:09;100913.97;;;9.86;100.00
41800;BME280;27468;47.460;19.034;2022-10-23T01:58:36;100868.56;;;9.63;100.00
41800;BME280;27468;47.460;19.034;2022-10-23T02:01:05;100872.97;;;9.59;100.00
41800;BME280;27468;47.460;19.034;2022-10-23T02:03:32;100880.88;;;9.57;100.00
41800;BME280;27468;47.460;19.034;2022-10-23T02:05:59;100841.56;;;9.36;100.00
41800;BME280;27468;47.460;19.034;2022-10-23T02:08:25;100866.94;;;9.45;100.00
41800;BME280;27468;47.460;19.034;2022-10-23T02:10:57;100896.66;;;9.62;100.00
41800;BME280;27468;47.460;19.034;2022-10-23T02:16:08;100924.66;;;9.71;100.00
41800;BME280;27468;47.460;19.034;2022-10-23T02:18:43;100923.81;;;9.67;100.00
41800;BME280;27468;47.460;19.034;2022-10-23T02:21:17;100880.19;;;9.33;100.00
41800;BME280;27468;47.460;19.034;2022-10-23T02:23:54;100925.69;;;9.51;100.00
41800;BME280;27468;47.460;19.034;2022-10-23T02:26:35;100864.56;;;9.11;100.00
41800;BME280;27468;47.460;19.034;2022-10-23T02:29:13;100878.53;;;9.19;100.00
41800;BME280;27468;47.460;19.034;2022-10-23T02:31:40;100909.13;;;9.34;100.00
41800;BME280;27468;47.460;19.034;2022-10-23T02:34:05;100911.75;;;9.31;100.00
41800;BME280;27468;47.460;19.034;2022-10-23T02:36:31;100907.38;;;9.30;100.00
41800;BME280;27468;47.460;19.034;2022-10-23T02:38:56;100910.97;;;9.21;100.00
41800;BME280;27468;47.460;19.034;2022-10-23T02:41:43;100949.44;;;9.38;100.00
41800;BME280;27468;47.460;19.034;2022-10-23T02:50:26;100968.78;;;9.26;100.00
41800;BME280;27468;47.460;19.034;2022-10-23T02:58:31;100981.16;;;9.15;100.00
41800;BME280;27468;47.460;19.034;2022-10-23T03:01:08;100975.03;;;9.13;100.00
41800;BME280;27468;47.460;19.034;2022-10-23T03:03:40;100926.06;;;8.83;100.00
41800;BME280;27468;47.460;19.034;2022-10-23T03:06:07;100942.66;;;8.92;100.00
41800;BME280;27468;47.460;19.034;2022-10-23T03:08:51;100949.72;;;8.80;100.00
41800;BME280;27468;47.460;19.034;2022-10-23T03:11:17;100947.09;;;8.81;100.00
41800;BME280;27468;47.460;19.034;2022-10-23T03:13:42;100981.22;;;8.95;100.00
41800;BME280;27468;47.460;19.034;2022-10-23T03:16:08;100983.84;;;9.01;100.00
41800;BME280;27468;47.460;19.034;2022-10-23T03:18:33;100932.22;;;8.70;100.00
41800;BME280;27468;47.460;19.034;2022-10-23T03:20:59;100980.34;;;8.94;100.00
41800;BME280;27468;47.460;19.034;2022-10-23T03:23:25;100938.38;;;8.70;100.00
41800;BME280;27468;47.460;19.034;2022-10-23T03:25:51;100949.75;;;8.74;100.00
41800;BME280;27468;47.460;19.034;2022-10-23T03:28:17;100948.00;;;8.68;100.00
41800;BME280;27468;47.460;19.034;2022-10-23T03:30:42;100906.94;;;8.46;100.00
41800;BME280;27468;47.460;19.034;2022-10-23T03:33:08;100920.06;;;8.49;100.00
41800;BME280;27468;47.460;19.034;2022-10-23T03:35:33;100920.94;;;8.48;100.00
41800;BME280;27468;47.460;19.034;2022-10-23T03:37:59;100929.69;;;8.44;100.00
41800;BME280;27468;47.460;19.034;2022-10-23T03:40:24;100986.56;;;8.71;100.00
41800;BME280;27468;47.460;19.034;2022-10-23T03:42:49;100983.03;;;8.75;100.00
41800;BME280;27468;47.460;19.034;2022-10-23T03:45:15;100960.34;;;8.54;100.00
41800;BME280;27468;47.460;19.034;2022-10-23T03:47:40;100963.81;;;8.62;100.00
41800;BME280;27468;47.460;19.034;2022-10-23T03:50:07;100924.44;;;8.32;100.00
41800;BME280;27468;47.460;19.034;2022-10-23T03:52:33;100943.72;;;8.46;100.00
41800;BME280;27468;47.460;19.034;2022-10-23T03:54:59;100964.72;;;8.55;100.00
41800;BME280;27468;47.460;19.034;2022-10-23T03:57:24;100991.81;;;8.68;100.00
41800;BME280;27468;47.460;19.034;2022-10-23T03:59:50;100977.84;;;8.58;100.00
41800;BME280;27468;47.460;19.034;2022-10-23T04:02:17;100971.72;;;8.53;100.00
41800;BME280;27468;47.460;19.034;2022-10-23T04:04:42;100952.47;;;8.43;100.00
41800;BME280;27468;47.460;19.034;2022-10-23T04:07:08;100978.72;;;8.55;100.00
41800;BME280;27468;47.460;19.034;2022-10-23T04:09:34;101002.38;;;8.60;100.00
41800;BME280;27468;47.460;19.034;2022-10-23T04:11:59;100960.38;;;8.37;100.00
41800;BME280;27468;47.460;19.034;2022-10-23T04:14:25;101003.25;;;8.57;100.00
41800;BME280;27468;47.460;19.034;2022-10-23T04:16:50;100991.00;;;8.55;100.00
41800;BME280;27468;47.460;19.034;2022-10-23T04:19:15;100970.88;;;8.43;100.00
41800;BME280;27468;47.460;19.034;2022-10-23T04:21:42;100953.38;;;8.33;100.00
41800;BME280;27468;47.460;19.034;2022-10-23T04:24:07;100989.25;;;8.52;100.00
41800;BME280;27468;47.460;19.034;2022-10-23T04:26:33;100981.38;;;8.51;100.00
41800;BME280;27468;47.460;19.034;2022-10-23T04:28:58;100936.72;;;8.20;100.00
41800;BME280;27468;47.460;19.034;2022-10-23T04:31:24;100984.00;;;8.49;100.00
41800;BME280;27468;47.460;19.034;2022-10-23T04:33:50;100982.25;;;8.47;100.00
41800;BME280;27468;47.460;19.034;2022-10-23T04:36:15;100942.84;;;8.19;100.00
41800;BME280;27468;47.460;19.034;2022-10-23T04:38:40;100979.63;;;8.42;100.00
41800;BME280;27468;47.460;19.034;2022-10-23T04:41:06;100974.38;;;8.41;100.00
41800;BME280;27468;47.460;19.034;2022-10-23T04:43:32;100978.75;;;8.42;100.00
41800;BME280;27468;47.460;19.034;2022-10-23T04:45:57;100962.97;;;8.23;100.00
41800;BME280;27468;47.460;19.034;2022-10-23T04:48:23;100993.66;;;8.38;100.00
41800;BME280;27468;47.460;19.034;2022-10-23T04:50:59;100992.78;;;8.38;100.00
41800;BME280;27468;47.460;19.034;2022-10-23T04:53:26;100968.22;;;8.19;100.00
41800;BME280;27468;47.460;19.034;2022-10-23T04:55:53;100999.78;;;8.36;100.00
41800;BME280;27468;47.460;19.034;2022-10-23T04:58:19;101012.91;;;8.34;100.00
41800;BME280;27468;47.460;19.034;2022-10-23T05:00:45;101008.53;;;8.33;100.00
41800;BME280;27468;47.460;19.034;2022-10-23T05:03:11;101001.50;;;8.24;100.00
41800;BME280;27468;47.460;19.034;2022-10-23T05:05:37;100981.34;;;8.13;100.00
41800;BME280;27468;47.460;19.034;2022-10-23T05:08:02;100956.00;;;7.95;100.00
41800;BME280;27468;47.460;19.034;2022-10-23T05:10:28;100995.38;;;8.19;100.00
41800;BME280;27468;47.460;19.034;2022-10-23T05:12:53;101005.00;;;8.25;100.00
41800;BME280;27468;47.460;19.034;2022-10-23T05:15:19;100987.50;;;8.13;100.00
41800;BME280;27468;47.460;19.034;2022-10-23T05:17:47;100994.50;;;8.17;100.00
41800;BME280;27468;47.460;19.034;2022-10-23T05:20:19;101010.25;;;8.26;100.00
41800;BME280;27468;47.460;19.034;2022-10-23T05:22:47;100994.50;;;8.17;100.00
41800;BME280;27468;47.460;19.034;2022-10-23T05:25:14;100956.88;;;7.97;100.00
41800;BME280;27468;47.460;19.034;2022-10-23T05:27:40;100998.00;;;8.27;100.00
41800;BME280;27468;47.460;19.034;2022-10-23T05:30:06;100991.00;;;8.23;100.00
41800;BME280;27468;47.460;19.034;2022-10-23T05:32:32;101001.50;;;8.26;100.00
41800;BME280;27468;47.460;19.034;2022-10-23T05:35:00;100955.13;;;7.98;100.00
41800;BME280;27468;47.460;19.034;2022-10-23T05:37:27;101001.50;;;8.23;100.00
41800;BME280;27468;47.460;19.034;2022-10-23T05:39:53;101024.25;;;8.30;100.00
41800;BME280;27468;47.460;19.034;2022-10-23T05:42:18;100959.50;;;7.92;100.00
41800;BME280;27468;47.460;19.034;2022-10-23T05:44:44;101026.88;;;8.28;100.00
41800;BME280;27468;47.460;19.034;2022-10-23T05:47:09;101025.19;;;8.37;100.00
41800;BME280;27468;47.460;19.034;2022-10-23T05:49:35;101023.41;;;8.34;100.00
41800;BME280;27468;47.460;19.034;2022-10-23T05:52:00;100995.38;;;8.19;100.00
41800;BME280;27468;47.460;19.034;2022-10-23T05:54:25;101014.66;;;8.44;100.00
41800;BME280;27468;47.460;19.034;2022-10-23T05:56:51;101013.78;;;8.48;100.00
41800;BME280;27468;47.460;19.034;2022-10-23T05:59:16;101010.28;;;8.55;100.00
41800;BME280;27468;47.460;19.034;2022-10-23T06:01:42;100999.75;;;8.57;100.00
41800;BME280;27468;47.460;19.034;2022-10-23T06:04:07;100997.13;;;8.57;100.00
41800;BME280;27468;47.460;19.034;2022-10-23T06:06:33;100986.63;;;8.51;100.00
41800;BME280;27468;47.460;19.034;2022-10-23T06:09:01;101016.34;;;8.70;100.00
41800;BME280;27468;47.460;19.034;2022-10-23T06:11:26;101022.47;;;8.79;100.00
41800;BME280;27468;47.460;19.034;2022-10-23T06:13:52;100989.25;;;8.54;100.00
41800;BME280;27468;47.460;19.034;2022-10-23T06:16:20;101025.09;;;8.84;100.00
41800;BME280;27468;47.460;19.034;2022-10-23T06:18:46;101027.72;;;8.87;100.00
41800;BME280;27468;47.460;19.034;2022-10-23T06:21:12;101036.47;;;8.95;100.00
41800;BME280;27468;47.460;19.034;2022-10-23T06:23:39;100990.94;;;8.72;100.00
41800;BME280;27468;47.460;19.034;2022-10-23T06:26:06;101047.81;;;9.05;100.00
41800;BME280;27468;47.460;19.034;2022-10-23T06:28:32;101008.44;;;8.76;100.00
41800;BME280;27468;47.460;19.034;2022-10-23T06:30:57;101058.34;;;9.08;100.00
41800;BME280;27468;47.460;19.034;2022-10-23T06:33:23;101064.47;;;9.13;100.00
41800;BME280;27468;47.460;19.034;2022-10-23T06:35:48;101011.03;;;8.92;100.00
41800;BME280;27468;47.460;19.034;2022-10-23T06:38:14;101044.31;;;9.09;100.00
41800;BME280;27468;47.460;19.034;2022-10-23T06:40:39;101049.56;;;9.15;100.00
41800;BME280;27468;47.460;19.034;2022-10-23T06:43:05;101058.31;;;9.18;100.00
41800;BME280;27468;47.460;19.034;2022-10-23T06:45:33;101015.41;;;9.00;100.00
41800;BME280;27468;47.460;19.034;2022-10-23T06:47:59;101025.91;;;9.06;100.00
41800;BME280;27468;47.460;19.034;2022-10-23T06:50:25;101082.78;;;9.40;100.00
41800;BME280;27468;47.460;19.034;2022-10-23T06:52:51;101032.88;;;9.16;100.00
41800;BME280;27468;47.460;19.034;2022-10-23T06:55:17;101045.06;;;9.34;100.00
41800;BME280;27468;47.460;19.034;2022-10-23T06:57:43;101051.19;;;9.42;100.00
41800;BME280;27468;47.460;19.034;2022-10-23T07:00:22;101051.16;;;9.48;100.00
41800;BME280;27468;47.460;19.034;2022-10-23T07:02:47;101075.63;;;9.67;100.00
41800;BME280;27468;47.460;19.034;2022-10-23T07:05:13;101070.38;;;9.68;100.00
41800;BME280;27468;47.460;19.034;2022-10-23T07:07:38;101014.38;;;9.36;100.00
41800;BME280;27468;47.460;19.034;2022-10-23T07:10:04;101023.09;;;9.45;100.00
41800;BME280;27468;47.460;19.034;2022-10-23T07:12:29;101068.56;;;9.81;100.00
41800;BME280;27468;47.460;19.034;2022-10-23T07:14:55;101083.34;;;9.97;100.00
41800;BME280;27468;47.460;19.034;2022-10-23T07:17:20;101035.25;;;9.68;100.00
41800;BME280;27468;47.460;19.034;2022-10-23T07:19:46;101089.44;;;10.07;100.00
41800;BME280;27468;47.460;19.034;2022-10-23T07:22:11;101092.94;;;10.10;100.00
41800;BME280;27468;47.460;19.034;2022-10-23T07:24:37;101074.53;;;10.04;100.00
41800;BME280;27468;47.460;19.034;2022-10-23T07:27:04;101091.13;;;10.21;100.00
41800;BME280;27468;47.460;19.034;2022-10-23T07:29:30;101083.22;;;10.21;100.00
41800;BME280;27468;47.460;19.034;2022-10-23T07:31:55;101082.31;;;10.27;100.00
41800;BME280;27468;47.460;19.034;2022-10-23T07:34:22;101080.53;;;10.29;100.00
41800;BME280;27468;47.460;19.034;2022-10-23T07:36:48;101082.25;;;10.35;100.00
41800;BME280;27468;47.460;19.034;2022-10-23T07:39:13;101074.31;;;10.38;100.00
41800;BME280;27468;47.460;19.034;2022-10-23T07:41:39;101080.47;;;10.37;100.00
41800;BME280;27468;47.460;19.034;2022-10-23T07:44:04;101076.88;;;10.45;100.00
41800;BME280;27468;47.460;19.034;2022-10-23T07:46:30;100983.28;;;9.94;100.00
41800;BME280;27468;47.460;19.034;2022-10-23T07:48:55;101026.94;;;10.30;100.00
41800;BME280;27468;47.460;19.034;2022-10-23T07:51:21;101015.53;;;10.28;100.00
41800;BME280;27468;47.460;19.034;2022-10-23T07:53:46;101012.00;;;10.31;100.00
41800;BME280;27468;47.460;19.034;2022-10-23T07:56:17;101014.63;;;10.34;100.00
41800;BME280;27468;47.460;19.034;2022-10-23T07:58:45;101069.59;;;10.73;100.00
41800;BME280;27468;47.460;19.034;2022-10-23T08:01:35;101071.28;;;10.82;100.00
41800;BME280;27468;47.460;19.034;2022-10-23T08:04:01;101073.88;;;10.86;100.00
41800;BME280;27468;47.460;19.034;2022-10-23T08:06:26;101007.41;;;10.49;100.00
41800;BME280;27468;47.460;19.034;2022-10-23T08:08:52;101065.06;;;10.87;100.00
41800;BME280;27468;47.460;19.034;2022-10-23T08:11:21;101073.72;;;11.00;100.00
41800;BME280;27468;47.460;19.034;2022-10-23T08:13:52;101058.75;;;10.99;100.00
41800;BME280;27468;47.460;19.034;2022-10-23T08:16:18;101065.72;;;11.06;100.00
41800;BME280;27468;47.460;19.034;2022-10-23T08:18:43;101016.81;;;10.78;100.00
41800;BME280;27468;47.460;19.034;2022-10-23T08:21:10;101078.00;;;11.10;100.00
41800;BME280;27468;47.460;19.034;2022-10-23T08:23:36;101077.91;;;11.18;100.00
41800;BME280;27468;47.460;19.034;2022-10-23T08:26:03;101073.50;;;11.20;100.00
41800;BME280;27468;47.460;19.034;2022-10-23T08:28:30;101033.34;;;10.94;100.00
41800;BME280;27468;47.460;19.034;2022-10-23T08:30:56;101030.63;;;11.00;100.00
41800;BME280;27468;47.460;19.034;2022-10-23T08:33:21;101043.63;;;11.15;100.00
41800;BME280;27468;47.460;19.034;2022-10-23T08:35:47;101038.28;;;11.21;100.00
41800;BME280;27468;47.460;19.034;2022-10-23T08:38:12;101002.41;;;11.05;100.00
41800;BME280;27468;47.460;19.034;2022-10-23T08:40:43;101082.81;;;11.50;100.00
41800;BME280;27468;47.460;19.034;2022-10-23T08:45:38;101026.78;;;11.27;100.00
41800;BME280;27468;47.460;19.034;2022-10-23T08:48:32;101060.81;;;11.49;100.00
41800;BME280;27468;47.460;19.034;2022-10-23T08:51:12;101085.22;;;11.67;100.00
41800;BME280;27468;47.460;19.034;2022-10-23T08:53:51;101055.34;;;11.62;100.00
41800;BME280;27468;47.460;19.034;2022-10-23T08:56:27;101068.38;;;11.78;100.00
41800;BME280;27468;47.460;19.034;2022-10-23T08:59:02;101038.44;;;11.78;100.00
41800;BME280;27468;47.460;19.034;2022-10-23T09:01:52;101050.69;;;11.85;100.00
41800;BME280;27468;47.460;19.034;2022-10-23T09:04:19;101046.13;;;11.96;100.00
41800;BME280;27468;47.460;19.034;2022-10-23T09:12:45;101016.09;;;12.00;100.00
41800;BME280;27468;47.460;19.034;2022-10-23T09:17:41;101071.00;;;12.37;100.00
41800;BME280;27468;47.460;19.034;2022-10-23T09:22:32;101042.81;;;12.36;100.00
41800;BME280;27468;47.460;19.034;2022-10-23T09:24:57;101020.94;;;12.26;100.00
41800;BME280;27468;47.460;19.034;2022-10-23T09:27:23;101050.69;;;12.40;100.00
41800;BME280;27468;47.460;19.034;2022-10-23T09:29:51;100997.50;;;12.06;100.00
41800;BME280;27468;47.460;19.034;2022-10-23T09:32:18;101021.91;;;12.20;100.00
41800;BME280;27468;47.460;19.034;2022-10-23T09:34:52;101090.81;;;12.67;100.00
41800;BME280;27468;47.460;19.034;2022-10-23T09:39:46;101047.72;;;12.60;100.00
41800;BME280;27468;47.460;19.034;2022-10-23T09:42:23;101092.13;;;12.90;100.00
41800;BME280;27468;47.460;19.034;2022-10-23T09:44:51;101070.91;;;12.92;100.00
41800;BME280;27468;47.460;19.034;2022-10-23T09:47:21;101011.44;;;12.67;100.00
41800;BME280;27468;47.460;19.034;2022-10-23T09:49:51;101016.50;;;12.77;100.00
41800;BME280;27468;47.460;19.034;2022-10-23T09:57:23;101032.56;;;13.14;100.00
41800;BME280;27468;47.460;19.034;2022-10-23T09:59:58;101034.22;;;13.21;100.00
41800;BME280;27468;47.460;19.034;2022-10-23T10:02:31;101021.81;;;13.24;100.00
41800;BME280;27468;47.460;19.034;2022-10-23T10:04:57;101069.69;;;13.56;100.00
41800;BME280;27468;47.460;19.034;2022-10-23T10:07:28;101053.81;;;13.54;100.00
41800;BME280;27468;47.460;19.034;2022-10-23T10:09:54;101075.59;;;13.69;100.00
41800;BME280;27468;47.460;19.034;2022-10-23T10:12:32;101069.34;;;13.71;100.00
41800;BME280;27468;47.460;19.034;2022-10-23T10:18:14;101045.53;;;13.70;100.00
41800;BME280;27468;47.460;19.034;2022-10-23T10:20:48;101016.63;;;13.59;100.00
41800;BME280;27468;47.460;19.034;2022-10-23T10:39:01;101036.69;;;14.08;100.00
41800;BME280;27468;47.460;19.034;2022-10-23T10:41:36;101039.22;;;14.12;100.00
41800;BME280;27468;47.460;19.034;2022-10-23T10:44:23;100998.91;;;13.98;100.00
41800;BME280;27468;47.460;19.034;2022-10-23T10:47:05;101028.44;;;14.20;100.00
41800;BME280;27468;47.460;19.034;2022-10-23T10:49:57;101014.31;;;14.19;100.00
41800;BME280;27468;47.460;19.034;2022-10-23T10:57:56;101019.84;;;14.46;100.00
41800;BME280;27468;47.460;19.034;2022-10-23T11:00:23;100974.38;;;14.26;100.00
41800;BME280;27468;47.460;19.034;2022-10-23T11:02:52;101003.78;;;14.52;100.00
41800;BME280;27468;47.460;19.034;2022-10-23T11:05:31;100995.63;;;14.60;100.00
41800;BME280;27468;47.460;19.034;2022-10-23T11:08:06;100980.75;;;14.52;100.00
41800;BME280;27468;47.460;19.034;2022-10-23T11:10:37;100981.41;;;14.62;100.00
41800;BME280;27468;47.460;19.034;2022-10-23T11:13:05;100992.63;;;14.72;100.00
41800;BME280;27468;47.460;19.034;2022-10-23T11:15:38;100974.22;;;14.66;100.00
41800;BME280;27468;47.460;19.034;2022-10-23T11:18:13;100981.94;;;14.75;100.00
41800;BME280;27468;47.460;19.034;2022-10-23T11:20:53;100985.63;;;14.69;99.35
41800;BME280;27468;47.460;19.034;2022-10-23T11:23:59;100993.34;;;14.78;99.08
41800;BME280;27468;47.460;19.034;2022-10-23T11:29:31;100984.56;;;14.76;98.26
41800;BME280;27468;47.460;19.034;2022-10-23T11:37:33;100926.03;;;14.48;98.08
41800;BME280;27468;47.460;19.034;2022-10-23T11:45:33;100986.91;;;14.87;97.53
41800;BME280;27468;47.460;19.034;2022-10-23T11:48:04;100986.88;;;14.89;97.33
41800;BME280;27468;47.460;19.034;2022-10-23T11:50:49;100967.63;;;14.80;97.08
41800;BME280;27468;47.460;19.034;2022-10-23T11:56:02;100932.53;;;14.69;96.66
41800;BME280;27468;47.460;19.034;2022-10-23T11:58:49;100968.91;;;14.98;97.09
41800;BME280;27468;47.460;19.034;2022-10-23T12:04:00;100966.94;;;15.03;96.85
41800;BME280;27468;47.460;19.034;2022-10-23T12:06:36;100898.03;;;14.69;96.58
41800;BME280;27468;47.460;19.034;2022-10-23T12:09:07;100950.16;;;15.03;96.33
41800;BME280;27468;47.460;19.034;2022-10-23T12:11:42;100957.97;;;15.07;96.24
41800;BME280;27468;47.460;19.034;2022-10-23T12:14:25;100956.81;;;15.17;96.12
41800;BME280;27468;47.460;19.034;2022-10-23T12:16:51;100941.81;;;15.15;95.98
41800;BME280;27468;47.460;19.034;2022-10-23T12:19:20;100911.09;;;15.06;95.37
41800;BME280;27468;47.460;19.034;2022-10-23T12:21:46;100931.75;;;15.26;95.11
41800;BME280;27468;47.460;19.034;2022-10-23T12:30:00;100896.41;;;15.24;93.90
41800;BME280;27468;47.460;19.034;2022-10-23T12:35:17;100901.97;;;15.44;93.20
41800;BME280;27468;47.460;19.034;2022-10-23T12:38:10;100920.19;;;15.58;92.45
41800;BME280;27468;47.460;19.034;2022-10-23T12:40:37;100873.25;;;15.28;92.56
41800;BME280;27468;47.460;19.034;2022-10-23T12:43:15;100852.25;;;15.20;92.19
41800;BME280;27468;47.460;19.034;2022-10-23T12:45:45;100890.53;;;15.42;92.28
41800;BME280;27468;47.460;19.034;2022-10-23T12:48:22;100908.69;;;15.56;92.35
41800;BME280;27468;47.460;19.034;2022-10-23T12:50:49;100896.41;;;15.52;92.58
41800;BME280;27468;47.460;19.034;2022-10-23T12:53:17;100890.22;;;15.51;92.44
41800;BME280;27468;47.460;19.034;2022-10-23T12:56:03;100888.97;;;15.63;92.14
41800;BME280;27468;47.460;19.034;2022-10-23T12:58:33;100898.03;;;15.84;91.88
41800;BME280;27468;47.460;19.034;2022-10-23T13:01:01;100853.34;;;15.69;91.48
41800;BME280;27468;47.460;19.034;2022-10-23T13:03:29;100858.25;;;15.81;91.15
41800;BME280;27468;47.460;19.034;2022-10-23T13:05:57;100882.75;;;15.91;90.52
41800;BME280;27468;47.460;19.034;2022-10-23T13:08:28;100886.69;;;16.05;89.90
41800;BME280;27468;47.460;19.034;2022-10-23T13:10:56;100839.50;;;15.85;89.38
41800;BME280;27468;47.460;19.034;2022-10-23T13:13:22;100878.53;;;16.10;87.96
41800;BME280;27468;47.460;19.034;2022-10-23T13:15:48;100885.59;;;16.11;87.46
41800;BME280;27468;47.460;19.034;2022-10-23T13:18:14;100878.66;;;16.07;87.62
41800;BME280;27468;47.460;19.034;2022-10-23T13:21:00;100882.19;;;16.07;87.50
41800;BME280;27468;47.460;19.034;2022-10-23T13:23:31;100877.88;;;16.03;88.26
41800;BME280;27468;47.460;19.034;2022-10-23T13:26:03;100844.91;;;15.82;88.30
41800;BME280;27468;47.460;19.034;2022-10-23T13:28:33;100876.03;;;16.05;88.30
41800;BME280;27468;47.460;19.034;2022-10-23T13:33:50;100855.63;;;16.06;88.50
41800;BME280;27468;47.460;19.034;2022-10-23T13:36:21;100828.38;;;15.99;88.58
41800;BME280;27468;47.460;19.034;2022-10-23T13:39:11;100859.41;;;16.24;88.47
41800;BME280;27468;47.460;19.034;2022-10-23T13:41:43;100856.81;;;16.22;88.84
41800;BME280;27468;47.460;19.034;2022-10-23T13:44:14;100840.78;;;16.24;89.12
41800;BME280;27468;47.460;19.034;2022-10-23T13:46:40;100840.03;;;16.20;88.51
41800;BME280;27468;47.460;19.034;2022-10-23T13:49:06;100854.47;;;16.38;88.87
41800;BME280;27468;47.460;19.034;2022-10-23T13:51:56;100821.25;;;16.25;88.88
41800;BME280;27468;47.460;19.034;2022-10-23T13:54:26;100853.38;;;16.43;88.41
41800;BME280;27468;47.460;19.034;2022-10-23T13:56:53;100828.78;;;16.37;88.33
41800;BME280;27468;47.460;19.034;2022-10-23T13:59:18;100843.56;;;16.45;88.59
41800;BME280;27468;47.460;19.034;2022-10-23T14:01:45;100833.72;;;16.47;88.54
41800;BME280;27468;47.460;19.034;2022-10-23T14:04:11;100828.41;;;16.47;88.27
41800;BME280;27468;47.460;19.034;2022-10-23T14:06:37;100820.69;;;16.40;88.61
41800;BME280;27468;47.460;19.034;2022-10-23T14:09:05;100845.06;;;16.52;88.55
41800;BME280;27468;47.460;19.034;2022-10-23T14:11:31;100832.56;;;16.55;88.53
41800;BME280;27468;47.460;19.034;2022-10-23T14:13:57;100819.53;;;16.47;88.68
41800;BME280;27468;47.460;19.034;2022-10-23T14:16:22;100815.97;;;16.48;88.96
41800;BME280;27468;47.460;19.034;2022-10-23T14:18:48;100823.19;;;16.44;89.24
41800;BME280;27468;47.460;19.034;2022-10-23T14:21:16;100809.13;;;16.41;89.12
41800;BME280;27468;47.460;19.034;2022-10-23T14:23:41;100809.94;;;16.43;89.47
41800;BME280;27468;47.460;19.034;2022-10-23T14:26:10;100782.03;;;16.30;89.27
41800;BME280;27468;47.460;19.034;2022-10-23T14:28:36;100780.34;;;16.27;89.38
41800;BME280;27468;47.460;19.034;2022-10-23T14:31:06;100815.84;;;16.51;89.35
41800;BME280;27468;47.460;19.034;2022-10-23T14:33:32;100770.69;;;16.25;89.49
41800;BME280;27468;47.460;19.034;2022-10-23T14:35:58;100795.13;;;16.36;89.64